Time;durP1;ratioP1;P1;durP2;ratioP2;P2;SDS_P1;SDS_P2;PMS_P1;PMS_P2;Temp;Humidity;BMP_temperature;BMP_pressure;BME280_temperature;BME280_humidity;BME280_pressure;Samples;Min_cycle;Max_cycle;Signal;HPM_P1;HPM_P2
2022/04/28 00:01:48;;;;;;;6.27;5.30;;;11.10;99.90;;;;;;4992871;28;20706;-58
2022/04/28 00:04:14;;;;;;;6.73;5.00;;;11.10;99.90;;;;;;4992485;28;20188;-53
2022/04/28 00:06:39;;;;;;;5.10;4.60;;;11.10;99.90;;;;;;4992393;28;20193;-59
2022/04/28 00:09:06;;;;;;;6.70;4.80;;;11.10;99.90;;;;;;4992748;28;20228;-54
2022/04/28 00:11:32;;;;;;;5.80;5.20;;;11.00;99.90;;;;;;4992452;28;20212;-57
2022/04/28 00:13:58;;;;;;;5.47;4.90;;;11.00;99.90;;;;;;4992138;28;20181;-57
2022/04/28 00:16:24;;;;;;;5.30;4.80;;;10.90;99.90;;;;;;4992079;28;20204;-57
2022/04/28 00:18:50;;;;;;;6.63;5.07;;;10.90;99.90;;;;;;4992595;28;20442;-53
2022/04/28 00:21:16;;;;;;;5.90;4.80;;;10.80;99.90;;;;;;4992743;28;20264;-57
2022/04/28 00:23:41;;;;;;;5.87;5.27;;;10.80;99.90;;;;;;4992229;28;20651;-54
2022/04/28 00:26:07;;;;;;;5.80;5.20;;;10.80;99.90;;;;;;4992194;28;20196;-55
2022/04/28 00:28:32;;;;;;;6.00;5.07;;;10.70;99.90;;;;;;4991232;28;20700;-56
2022/04/28 00:30:58;;;;;;;5.87;5.00;;;10.70;99.90;;;;;;4992169;28;20248;-54
2022/04/28 00:33:23;;;;;;;5.27;4.70;;;10.70;99.90;;;;;;4990617;28;20209;-54
2022/04/28 00:35:49;;;;;;;5.53;4.97;;;10.70;99.90;;;;;;4992440;28;20170;-58
2022/04/28 00:38:15;;;;;;;5.90;4.77;;;10.60;99.90;;;;;;4992215;28;20689;-55
2022/04/28 00:40:40;;;;;;;5.53;5.00;;;10.60;99.90;;;;;;4992423;28;20170;-56
2022/04/28 00:43:18;;;;;;;5.30;4.80;;;10.60;99.90;;;;;;4991862;28;20643;-52
2022/04/28 00:45:44;;;;;;;5.70;5.10;;;10.50;99.90;;;;;;4992247;28;20296;-56
2022/04/28 00:50:59;;;;;;;5.77;4.93;;;10.40;99.90;;;;;;4992390;28;20180;-57
2022/04/28 00:53:28;;;;;;;5.40;4.90;;;10.40;99.90;;;;;;4991703;28;20197;-55
2022/04/28 00:55:54;;;;;;;6.80;5.13;;;10.30;99.90;;;;;;4992243;28;20201;-53
2022/04/28 00:58:20;;;;;;;5.70;5.10;;;10.30;99.90;;;;;;4992143;28;20165;-54
2022/04/28 01:00:45;;;;;;;5.43;4.93;;;10.30;99.90;;;;;;4992170;28;20169;-54
2022/04/28 01:03:12;;;;;;;6.20;4.53;;;10.30;99.90;;;;;;4991883;28;20212;-55
2022/04/28 01:05:38;;;;;;;6.27;5.33;;;10.20;99.90;;;;;;4992137;28;20181;-55
2022/04/28 01:08:04;;;;;;;5.60;5.10;;;10.20;99.90;;;;;;4991988;28;20201;-54
2022/04/28 01:10:29;;;;;;;7.23;5.10;;;10.10;99.90;;;;;;4992017;28;20188;-57
2022/04/28 01:12:56;;;;;;;5.63;5.13;;;10.00;99.90;;;;;;4991805;28;20255;-54
2022/04/28 01:15:22;;;;;;;5.77;5.27;;;10.00;99.90;;;;;;4991884;28;20173;-57
2022/04/28 01:17:47;;;;;;;6.03;5.27;;;9.90;99.90;;;;;;4992018;28;20193;-56
2022/04/28 01:20:13;;;;;;;5.63;5.10;;;9.80;99.90;;;;;;4991945;28;20169;-55
2022/04/28 01:22:40;;;;;;;6.47;5.27;;;9.70;99.90;;;;;;4990497;28;20177;-57
2022/04/28 01:25:09;;;;;;;5.60;5.10;;;9.70;99.90;;;;;;4991559;28;20273;-52
2022/04/28 01:27:37;;;;;;;6.10;5.50;;;9.70;99.90;;;;;;4991957;28;20192;-54
2022/04/28 01:30:14;;;;;;;5.93;5.33;;;9.70;99.90;;;;;;4995453;28;20265;-58
2022/04/28 01:32:40;;;;;;;5.73;5.13;;;9.70;99.90;;;;;;4995152;28;20208;-58
2022/04/28 01:35:05;;;;;;;5.97;5.37;;;9.60;99.90;;;;;;4995309;28;20177;-57
2022/04/28 01:37:31;;;;;;;7.80;5.87;;;9.60;99.90;;;;;;4995351;28;20200;-55
2022/04/28 01:39:57;;;;;;;5.50;5.00;;;9.50;99.90;;;;;;4995235;28;20192;-57
2022/04/28 01:42:23;;;;;;;5.47;4.97;;;9.50;99.90;;;;;;4995107;28;20181;-55
2022/04/28 01:44:50;;;;;;;6.30;5.70;;;9.60;99.90;;;;;;4995301;28;20176;-56
2022/04/28 01:47:16;;;;;;;5.70;5.10;;;9.50;99.90;;;;;;4995195;28;20216;-56
2022/04/28 01:49:41;;;;;;;6.17;5.20;;;9.50;99.90;;;;;;4995118;28;20185;-58
2022/04/28 01:55:00;;;;;;;7.27;5.20;;;9.30;99.90;;;;;;4995355;28;20180;-55
2022/04/28 01:57:27;;;;;;;5.30;4.80;;;9.40;99.90;;;;;;4994868;28;20195;-54
2022/04/28 01:59:54;;;;;;;5.97;5.00;;;9.30;99.90;;;;;;4995082;28;20189;-54
2022/04/28 02:02:21;;;;;;;5.67;5.07;;;9.30;99.90;;;;;;4994582;28;20239;-55
2022/04/28 02:04:47;;;;;;;6.33;4.70;;;;;;;;;;4994815;28;20165;-55
2022/04/28 02:07:13;;;;;;;5.17;4.67;;;9.10;99.90;;;;;;4994756;28;20709;-55
2022/04/28 02:09:43;;;;;;;5.50;5.00;;;9.10;99.90;;;;;;4994844;28;20184;-53
2022/04/28 02:12:09;;;;;;;5.67;5.07;;;9.10;99.90;;;;;;4994488;28;20255;-58
2022/04/28 02:14:36;;;;;;;5.20;4.70;;;9.00;99.90;;;;;;4994292;28;20192;-57
2022/04/28 02:17:02;;;;;;;5.23;4.63;;;9.00;99.90;;;;;;4994508;28;20197;-56
2022/04/28 02:19:27;;;;;;;4.87;4.47;;;9.00;99.90;;;;;;4994329;28;20212;-56
2022/04/28 02:21:54;;;;;;;5.33;4.83;;;9.00;99.90;;;;;;4994545;28;20197;-54
2022/04/28 02:24:19;;;;;;;4.80;4.40;;;9.40;99.90;;;;;;4994108;28;20658;-57
2022/04/28 02:26:45;;;;;;;6.57;4.60;;;8.90;99.90;;;;;;4994608;28;20209;-55
2022/04/28 02:29:10;;;;;;;5.10;4.60;;;8.90;99.90;;;;;;4994427;28;20177;-56
2022/04/28 02:31:36;;;;;;;5.10;4.60;;;8.90;99.90;;;;;;4994377;28;20178;-54
2022/04/28 02:34:01;;;;;;;4.97;4.50;;;8.90;99.90;;;;;;4993872;28;20165;-55
2022/04/28 02:36:27;;;;;;;4.93;4.40;;;;;;;;;;4994335;28;20574;-58
2022/04/28 02:38:53;;;;;;;5.90;4.33;;;8.80;99.90;;;;;;4993941;28;20632;-58
2022/04/28 02:41:22;;;;;;;5.67;4.30;;;8.80;99.90;;;;;;4994241;28;20169;-55
2022/04/28 02:43:48;;;;;;;4.37;3.90;;;8.70;99.90;;;;;;4993826;28;20232;-58
2022/04/28 02:46:15;;;;;;;5.30;4.80;;;8.50;99.90;;;;;;4993916;28;20184;-54
2022/04/28 02:48:40;;;;;;;4.70;4.30;;;9.10;99.90;;;;;;4993991;28;20235;-58
2022/04/28 02:51:06;;;;;;;4.90;4.50;;;8.60;99.90;;;;;;4993701;28;20189;-53
2022/04/28 02:53:32;;;;;;;5.77;4.67;;;8.70;99.90;;;;;;4993658;28;20207;-57
2022/04/28 02:55:57;;;;;;;4.37;3.97;;;8.70;99.90;;;;;;4993850;28;20177;-57
2022/04/28 02:58:23;;;;;;;5.30;4.50;;;8.60;99.90;;;;;;4992816;28;20181;-56
2022/04/28 03:00:48;;;;;;;5.70;4.50;;;8.60;99.90;;;;;;4993740;28;20205;-57
2022/04/28 03:03:14;;;;;;;5.80;5.20;;;8.60;99.90;;;;;;4993701;28;20180;-58
2022/04/28 03:11:09;;;;;;;5.30;4.80;;;8.70;99.90;;;;;;4993584;28;20188;-57
2022/04/28 03:13:35;;;;;;;5.80;5.00;;;8.60;99.90;;;;;;4993247;28;20205;-55
2022/04/28 03:16:01;;;;;;;5.30;4.80;;;8.60;99.90;;;;;;4993385;28;20177;-58
2022/04/28 03:18:27;;;;;;;6.33;4.70;;;8.70;99.90;;;;;;4993756;28;20220;-56
2022/04/28 03:20:52;;;;;;;5.53;4.70;;;8.70;99.90;;;;;;4993485;28;20524;-57
2022/04/28 03:23:18;;;;;;;5.33;4.50;;;8.70;99.90;;;;;;4992986;28;20200;-54
2022/04/28 03:25:43;;;;;;;4.70;4.20;;;8.70;99.90;;;;;;4993390;28;20181;-56
2022/04/28 03:28:09;;;;;;;5.23;4.73;;;8.70;99.90;;;;;;4993226;28;20287;-56
2022/04/28 03:30:35;;;;;;;4.87;4.37;;;8.70;99.90;;;;;;4993348;28;20181;-57
2022/04/28 03:33:01;;;;;;;4.53;4.13;;;8.80;99.90;;;;;;4992863;28;20216;-55
2022/04/28 03:35:27;;;;;;;6.00;5.00;;;8.80;99.90;;;;;;4993328;28;20177;-58
2022/04/28 03:37:52;;;;;;;5.03;4.53;;;8.80;99.90;;;;;;4993026;28;20200;-57
2022/04/28 03:40:18;;;;;;;5.70;4.57;;;8.80;99.90;;;;;;4993142;28;20177;-55
2022/04/28 03:42:44;;;;;;;5.07;4.50;;;8.70;99.90;;;;;;4992711;28;20335;-54
2022/04/28 03:45:11;;;;;;;5.30;4.80;;;8.70;99.90;;;;;;4993084;28;20174;-54
2022/04/28 03:47:36;;;;;;;5.17;4.67;;;8.70;99.90;;;;;;4994298;28;20305;-58
2022/04/28 03:50:06;;;;;;;5.03;4.53;;;8.70;99.90;;;;;;4992459;28;20258;-54
2022/04/28 03:52:31;;;;;;;5.17;4.67;;;8.70;99.90;;;;;;4992464;28;20204;-56
2022/04/28 03:54:57;;;;;;;5.60;4.90;;;8.60;99.90;;;;;;4992752;28;20181;-55
2022/04/28 03:57:23;;;;;;;4.50;4.10;;;8.60;99.90;;;;;;4993104;28;20276;-53
2022/04/28 03:59:48;;;;;;;5.20;4.70;;;8.60;99.90;;;;;;4992704;28;20185;-57
2022/04/28 04:02:14;;;;;;;4.77;4.37;;;8.60;99.90;;;;;;4992605;28;20173;-57
2022/04/28 04:04:39;;;;;;;5.27;4.77;;;8.70;99.90;;;;;;4992564;28;20207;-54
2022/04/28 04:07:06;;;;;;;5.10;4.60;;;8.70;99.90;;;;;;4992747;28;20279;-55
2022/04/28 04:09:32;;;;;;;4.90;4.50;;;8.70;99.90;;;;;;4992459;28;20184;-56
2022/04/28 04:11:57;;;;;;;5.30;4.80;;;8.70;99.90;;;;;;4992574;28;20201;-56
2022/04/28 04:14:23;;;;;;;4.70;4.30;;;8.70;99.90;;;;;;4992390;28;20251;-57
2022/04/28 04:16:49;;;;;;;5.30;4.80;;;8.70;99.90;;;;;;4992565;28;20328;-58
2022/04/28 04:19:14;;;;;;;5.73;4.60;;;8.70;99.90;;;;;;4992749;28;20173;-57
2022/04/28 04:21:40;;;;;;;5.93;5.20;;;8.70;99.90;;;;;;4992428;28;20176;-56
2022/04/28 04:24:06;;;;;;;6.10;4.80;;;8.70;99.90;;;;;;4992083;28;20193;-54
2022/04/28 04:26:32;;;;;;;5.57;4.63;;;8.70;99.90;;;;;;4992508;28;20677;-56
2022/04/28 04:28:58;;;;;;;5.30;4.80;;;8.80;99.90;;;;;;4992564;28;20181;-57
2022/04/28 04:34:08;;;;;;;6.33;4.80;;;8.70;99.90;;;;;;4992176;28;20674;-59
2022/04/28 04:36:34;;;;;;;6.60;5.50;;;8.70;99.90;;;;;;4992069;28;20205;-56
2022/04/28 04:38:59;;;;;;;5.40;4.90;;;8.70;99.90;;;;;;4992526;28;20169;-53
2022/04/28 04:41:25;;;;;;;5.40;4.90;;;8.70;99.90;;;;;;4992420;28;20177;-54
2022/04/28 04:43:50;;;;;;;5.47;4.97;;;8.80;99.90;;;;;;4992217;28;20177;-57
2022/04/28 04:46:16;;;;;;;5.40;4.80;;;8.80;99.90;;;;;;4992107;28;20629;-56
2022/04/28 04:48:41;;;;;;;5.20;4.70;;;8.90;99.90;;;;;;4992324;28;20272;-55
2022/04/28 04:51:07;;;;;;;5.70;5.10;;;8.90;99.90;;;;;;4992265;28;20546;-57
2022/04/28 04:53:32;;;;;;;5.43;4.93;;;9.00;99.90;;;;;;4991874;28;20569;-53
2022/04/28 04:55:58;;;;;;;5.40;4.90;;;9.00;99.90;;;;;;4992566;28;20598;-58
2022/04/28 04:58:24;;;;;;;4.97;4.53;;;9.20;99.90;;;;;;4992077;28;20261;-55
2022/04/28 05:00:49;;;;;;;5.20;4.70;;;9.20;99.90;;;;;;4992283;28;20172;-56
2022/04/28 05:03:15;;;;;;;5.20;4.70;;;9.30;99.90;;;;;;4995475;28;20177;-54
2022/04/28 05:05:42;;;;;;;5.33;4.40;;;9.40;99.90;;;;;;4996071;28;20691;-58
2022/04/28 05:08:08;;;;;;;6.17;4.73;;;9.40;99.90;;;;;;4997011;28;20197;-55
2022/04/28 05:10:34;;;;;;;5.30;4.80;;;9.40;99.90;;;;;;4996016;28;20205;-54
2022/04/28 05:12:59;;;;;;;5.97;4.60;;;9.50;99.90;;;;;;4994621;28;20717;-54
2022/04/28 05:15:25;;;;;;;5.43;4.47;;;9.50;99.90;;;;;;4995380;28;20526;-54
2022/04/28 05:17:50;;;;;;;4.60;4.20;;;9.50;99.90;;;;;;4995397;28;20204;-57
2022/04/28 05:20:16;;;;;;;5.10;4.60;;;9.60;99.90;;;;;;4995254;28;20173;-55
2022/04/28 05:22:41;;;;;;;4.97;4.47;;;9.70;99.90;;;;;;4995590;28;20176;-54
2022/04/28 05:25:07;;;;;;;6.60;4.83;;;10.00;99.90;;;;;;4996703;28;20170;-58
2022/04/28 05:27:33;;;;;;;4.93;4.27;;;;;;;;;;4989073;28;20204;-54
2022/04/28 05:29:59;;;;;;;4.93;4.43;;;;;;;;;;4995429;28;20301;-56
2022/04/28 05:32:25;;;;;;;7.47;4.60;;;9.90;99.90;;;;;;4997949;28;20654;-58
2022/04/28 05:34:50;;;;;;;5.67;4.60;;;9.90;99.90;;;;;;4995030;28;20204;-57
2022/04/28 05:37:16;;;;;;;5.70;4.97;;;9.70;99.90;;;;;;4994947;28;20204;-52
2022/04/28 05:39:43;;;;;;;5.37;4.50;;;9.80;99.90;;;;;;4999224;28;20268;-53
2022/04/28 05:42:09;;;;;;;5.10;4.60;;;9.90;99.90;;;;;;4995315;28;20180;-57
2022/04/28 05:47:20;;;;;;;6.03;4.50;;;;;;;;;;4982836;28;20649;-56
2022/04/28 05:49:46;;;;;;;5.33;4.63;;;10.20;99.90;;;;;;4995110;28;20177;-56
2022/04/28 05:52:12;;;;;;;5.07;4.57;;;10.20;99.90;;;;;;4986692;28;20238;-55
2022/04/28 05:54:39;;;;;;;5.47;4.87;;;10.20;99.90;;;;;;4996044;28;20261;-54
2022/04/28 05:57:05;;;;;;;5.63;4.50;;;10.30;99.90;;;;;;4995935;28;20242;-55
2022/04/28 05:59:31;;;;;;;4.60;4.20;;;10.30;99.90;;;;;;4994702;28;20177;-56
2022/04/28 06:01:57;;;;;;;5.13;4.37;;;10.30;99.90;;;;;;4994237;28;20186;-57
2022/04/28 06:04:22;;;;;;;4.67;4.20;;;10.40;99.90;;;;;;4994396;28;20239;-57
2022/04/28 06:06:48;;;;;;;5.07;4.13;;;10.50;99.90;;;;;;4994539;28;20193;-58
2022/04/28 06:09:13;;;;;;;6.53;4.93;;;10.60;99.90;;;;;;4995516;28;20182;-59
2022/04/28 06:11:39;;;;;;;7.57;4.40;;;10.70;99.90;;;;;;4995493;28;20185;-56
2022/04/28 06:14:04;;;;;;;4.30;3.90;;;10.80;99.90;;;;;;4994981;28;20177;-58
2022/04/28 06:16:30;;;;;;;5.37;4.87;;;10.90;99.90;;;;;;4994681;28;20208;-56
2022/04/28 06:18:56;;;;;;;6.00;4.37;;;10.90;99.90;;;;;;4993959;28;20204;-56
2022/04/28 06:21:21;;;;;;;4.63;4.23;;;10.90;99.90;;;;;;4988458;28;20176;-57
2022/04/28 06:23:47;;;;;;;4.60;4.20;;;11.00;99.90;;;;;;4993087;28;20177;-56
2022/04/28 06:26:12;;;;;;;5.40;4.80;;;11.00;99.90;;;;;;4996323;28;20547;-54
2022/04/28 06:28:38;;;;;;;5.13;4.57;;;11.10;99.90;;;;;;4999122;28;20183;-56
2022/04/28 06:31:03;;;;;;;4.70;4.20;;;11.20;99.90;;;;;;4993515;28;20575;-54
2022/04/28 06:33:29;;;;;;;4.97;4.47;;;11.30;99.90;;;;;;4993733;28;20236;-53
2022/04/28 06:35:55;;;;;;;5.13;4.57;;;11.40;99.90;;;;;;4994118;28;20248;-59
2022/04/28 06:38:21;;;;;;;6.03;4.80;;;11.40;99.90;;;;;;4993951;28;20177;-55
2022/04/28 06:40:46;;;;;;;5.00;4.60;;;11.50;99.90;;;;;;4993717;28;20630;-55
2022/04/28 06:43:12;;;;;;;5.40;4.83;;;11.60;99.90;;;;;;4993570;28;20227;-55
2022/04/28 06:46:11;;;;;;;5.07;4.53;;;11.70;99.90;;;;;;5012466;28;20189;-56
2022/04/28 06:48:23;;;;;;;5.43;4.90;;;11.80;99.90;;;;;;5012296;28;20223;-54
2022/04/28 06:50:49;;;;;;;5.80;4.77;;;11.90;99.90;;;;;;5005268;28;20555;-59
2022/04/28 06:53:14;;;;;;;5.33;4.83;;;11.60;99.90;;;;;;4989522;28;20220;-57
2022/04/28 06:55:40;;;;;;;6.20;4.90;;;11.90;99.90;;;;;;4990837;28;20188;-56
2022/04/28 06:58:05;;;;;;;5.57;4.93;;;11.70;99.90;;;;;;4988867;28;20259;-54
2022/04/28 07:00:31;;;;;;;5.57;5.03;;;12.10;99.90;;;;;;4975075;28;20264;-55
2022/04/28 07:02:56;;;;;;;5.40;4.90;;;12.30;99.90;;;;;;4992801;28;20326;-55
2022/04/28 07:05:22;;;;;;;5.50;4.97;;;12.00;99.90;;;;;;4987543;28;20263;-55
2022/04/28 07:07:49;;;;;;;5.30;4.80;;;11.90;99.90;;;;;;4993166;28;20275;-53
2022/04/28 07:10:15;;;;;;;5.73;5.23;;;11.80;99.90;;;;;;4993550;28;20184;-55
2022/04/28 07:12:41;;;;;;;5.47;4.97;;;11.90;99.90;;;;;;4991932;28;20197;-54
2022/04/28 07:15:06;;;;;;;6.90;5.27;;;11.80;99.90;;;;;;4993631;28;20182;-55
2022/04/28 07:17:32;;;;;;;5.30;4.80;;;12.20;99.90;;;;;;4993289;28;20255;-54
2022/04/28 07:19:59;;;;;;;5.60;5.00;;;12.20;99.90;;;;;;4993440;28;20208;-54
2022/04/28 07:22:25;;;;;;;6.03;5.30;;;12.70;99.90;;;;;;4993308;28;20264;-58
2022/04/28 07:24:50;;;;;;;5.10;4.60;;;12.80;99.90;;;;;;4992442;28;20284;-54
2022/04/28 07:27:15;;;;;;;5.40;4.90;;;12.90;99.90;;;;;;4993148;28;20260;-57
2022/04/28 07:29:41;;;;;;;5.33;4.80;;;13.00;99.90;;;;;;4993420;28;20382;-55
2022/04/28 07:32:09;;;;;;;5.27;4.77;;;12.40;99.90;;;;;;4993013;28;20671;-55
2022/04/28 07:34:36;;;;;;;5.30;4.80;;;12.80;99.90;;;;;;4992711;28;20528;-56
2022/04/28 07:37:01;;;;;;;5.53;5.03;;;13.00;99.90;;;;;;4993057;28;20198;-57
2022/04/28 07:39:27;;;;;;;5.77;5.10;;;;;;;;;;4993127;28;20638;-57
2022/04/28 07:41:53;;;;;;;6.33;5.47;;;;;;;;;;4993007;28;20256;-59
2022/04/28 07:44:19;;;;;;;6.13;5.53;;;12.80;99.90;;;;;;4992919;28;20185;-56
2022/04/28 07:46:44;;;;;;;5.87;5.37;;;13.50;99.90;;;;;;4992704;28;20666;-52
2022/04/28 07:49:10;;;;;;;6.03;5.43;;;13.10;99.90;;;;;;4992948;28;20181;-54
2022/04/28 07:51:36;;;;;;;5.43;4.90;;;;;;;;;;4993040;28;20173;-54
2022/04/28 07:54:03;;;;;;;5.50;5.00;;;13.60;99.90;;;;;;4992555;28;20739;-56
2022/04/28 07:56:30;;;;;;;6.33;5.73;;;13.50;99.90;;;;;;4992774;28;20618;-57
2022/04/28 07:58:55;;;;;;;6.27;5.67;;;13.90;99.90;;;;;;4992863;28;20174;-56
2022/04/28 08:01:21;;;;;;;6.47;5.87;;;13.90;99.90;;;;;;4992769;28;20270;-56
2022/04/28 08:03:46;;;;;;;5.60;5.00;;;13.70;99.90;;;;;;4992425;28;20240;-56
2022/04/28 08:06:13;;;;;;;7.00;6.07;;;13.90;99.90;;;;;;4992526;28;20169;-58
2022/04/28 08:08:39;;;;;;;7.30;5.53;;;14.10;99.90;;;;;;4992616;28;20179;-55
2022/04/28 08:11:05;;;;;;;7.40;5.33;;;14.20;99.90;;;;;;4992428;28;20176;-58
2022/04/28 08:13:31;;;;;;;6.17;5.47;;;14.30;99.90;;;;;;4992236;28;20218;-55
2022/04/28 08:15:57;;;;;;;5.90;5.30;;;14.30;99.90;;;;;;4992626;28;20187;-58
2022/04/28 08:18:27;;;;;;;6.53;5.67;;;14.20;99.90;;;;;;4992476;28;20220;-56
2022/04/28 08:20:52;;;;;;;6.37;5.57;;;14.10;99.90;;;;;;4992629;28;20629;-59
2022/04/28 08:23:18;;;;;;;6.30;5.70;;;14.10;99.90;;;;;;4992088;28;20256;-55
2022/04/28 08:25:43;;;;;;;6.43;5.73;;;14.20;99.90;;;;;;4992549;28;20188;-58
2022/04/28 08:28:09;;;;;;;8.30;5.27;;;15.20;99.90;;;;;;4992324;28;20211;-58
2022/04/28 08:30:34;;;;;;;6.93;4.90;;;14.30;99.90;;;;;;4992567;28;20183;-58
2022/04/28 08:33:01;;;;;;;7.40;5.53;;;14.40;99.90;;;;;;4991974;28;20209;-57
2022/04/28 08:35:28;;;;;;;6.07;5.47;;;14.40;99.90;;;;;;4981920;28;20201;-58
2022/04/28 08:37:54;;;;;;;5.17;4.70;;;14.50;99.90;;;;;;4997884;28;20235;-55
2022/04/28 08:40:20;;;;;;;6.73;5.00;;;14.50;99.90;;;;;;4998898;28;20177;-57
2022/04/28 08:42:48;;;;;;;5.63;5.13;;;14.60;99.90;;;;;;4998687;28;20173;-59
2022/04/28 08:45:18;;;;;;;7.17;5.17;;;14.80;99.90;;;;;;4998508;28;20207;-58
2022/04/28 08:47:46;;;;;;;6.57;5.00;;;14.90;99.90;;;;;;4998808;28;20216;-59
2022/04/28 08:50:13;;;;;;;6.97;5.50;;;15.10;99.90;;;;;;4998681;28;20180;-58
2022/04/28 08:52:39;;;;;;;5.67;5.17;;;15.20;99.90;;;;;;4998525;28;20335;-59
2022/04/28 08:55:06;;;;;;;5.53;4.93;;;15.40;99.90;;;;;;4998636;28;20212;-59
2022/04/28 08:57:34;;;;;;;6.00;4.97;;;15.60;99.90;;;;;;4998606;28;20192;-59
2022/04/28 09:00:00;;;;;;;6.03;5.40;;;15.80;99.90;;;;;;4998422;28;20256;-58
2022/04/28 09:02:29;;;;;;;5.73;5.13;;;16.00;99.90;;;;;;4998397;28;20260;-59
2022/04/28 09:05:03;;;;;;;6.23;5.37;;;16.20;99.90;;;;;;4998542;28;20181;-58
2022/04/28 09:07:38;;;;;;;5.50;5.00;;;16.40;99.90;;;;;;4998651;28;20233;-58
2022/04/28 09:10:27;;;;;;;5.40;4.90;;;16.30;99.90;;;;;;4998581;28;20180;-59
2022/04/28 09:15:52;;;;;;;4.93;4.53;;;16.70;99.90;;;;;;4998407;28;20236;-60
2022/04/28 09:18:21;;;;;;;5.30;4.53;;;17.00;99.90;;;;;;4998511;28;20208;-59
2022/04/28 09:20:48;;;;;;;5.07;4.30;;;17.30;99.60;;;;;;4998691;28;20239;-57
2022/04/28 09:23:15;;;;;;;4.83;4.37;;;17.60;99.20;;;;;;4998033;28;20652;-57
2022/04/28 09:25:42;;;;;;;3.93;3.63;;;17.90;98.00;;;;;;4998758;28;20180;-58
2022/04/28 09:28:10;;;;;;;5.00;4.50;;;18.00;97.60;;;;;;4998256;28;20285;-59
2022/04/28 09:30:42;;;;;;;4.80;4.40;;;18.00;97.20;;;;;;4998109;28;20243;-59
2022/04/28 09:33:12;;;;;;;5.97;4.33;;;18.20;96.80;;;;;;4997346;28;20677;-57
2022/04/28 09:35:45;;;;;;;4.40;4.00;;;17.20;95.30;;;;;;4991196;28;20184;-57
2022/04/28 09:38:11;;;;;;;4.50;4.10;;;18.00;95.40;;;;;;4998218;28;20268;-59
2022/04/28 09:43:21;;;;;;;5.27;3.40;;;18.00;96.00;;;;;;4998304;28;20224;-57
2022/04/28 09:45:49;;;;;;;3.80;3.50;;;18.40;97.70;;;;;;5003170;28;20181;-58
2022/04/28 09:48:17;;;;;;;3.37;3.07;;;18.70;95.60;;;;;;4995948;28;20213;-54
2022/04/28 09:50:43;;;;;;;3.47;2.70;;;18.90;94.20;;;;;;4995106;28;20180;-56
2022/04/28 09:53:08;;;;;;;3.27;2.83;;;19.20;94.10;;;;;;4999722;28;20201;-57
2022/04/28 09:55:34;;;;;;;3.93;2.60;;;19.40;94.60;;;;;;4994990;28;20176;-56
2022/04/28 09:58:04;;;;;;;2.77;2.40;;;19.60;92.40;;;;;;4995181;28;20243;-55
2022/04/28 10:00:30;;;;;;;3.80;2.80;;;19.70;92.00;;;;;;4995273;28;20581;-58
2022/04/28 10:02:56;;;;;;;3.70;2.60;;;19.80;91.80;;;;;;4994702;28;20173;-58
2022/04/28 10:05:25;;;;;;;2.93;2.73;;;19.90;92.60;;;;;;4995109;28;20169;-58
2022/04/28 10:07:53;;;;;;;2.80;2.60;;;19.90;92.30;;;;;;4994495;28;20283;-57
2022/04/28 10:10:19;;;;;;;3.22;2.92;;;20.40;93.80;;;;;;4994988;28;20173;-58
2022/04/28 10:12:47;;;;;;;3.65;3.15;;;20.80;91.60;;;;;;4994361;28;20202;-56
2022/04/28 10:15:15;;;;;;;3.28;2.95;;;21.10;90.10;;;;;;4994531;28;20181;-58
2022/04/28 10:17:50;;;;;;;3.53;2.92;;;21.20;91.20;;;;;;5005032;28;20682;-55
2022/04/28 10:20:32;;;;;;;2.95;2.65;;;21.10;88.70;;;;;;4993540;28;20182;-58
2022/04/28 10:23:03;;;;;;;2.72;2.50;;;20.90;90.90;;;;;;5060098;22;20225;-58
2022/04/28 10:34:12;;;;;;;2.87;2.37;;;20.90;86.50;;;;;;5013234;28;20252;-57
2022/04/28 10:37:10;;;;;;;2.60;2.40;;;20.70;87.80;;;;;;5013812;28;20173;-57
2022/04/28 10:39:45;;;;;;;2.17;2.07;;;20.70;86.30;;;;;;4933932;29;20284;-58
2022/04/28 10:42:19;;;;;;;2.93;2.33;;;20.70;86.70;;;;;;4933537;29;20269;-57
2022/04/28 10:44:54;;;;;;;2.60;2.30;;;20.60;82.60;;;;;;4934022;29;20240;-57
2022/04/28 10:47:41;;;;;;;2.17;2.00;;;20.70;83.40;;;;;;4933971;29;20214;-57
2022/04/28 10:50:29;;;;;;;2.50;2.30;;;20.80;85.00;;;;;;4933993;29;20192;-55
2022/04/28 10:53:05;;;;;;;2.88;2.60;;;20.90;83.20;;;;;;4933320;29;20246;-57
2022/04/28 10:55:39;;;;;;;3.15;2.95;;;21.10;81.10;;;;;;4933770;29;20175;-57
2022/04/28 10:58:37;;;;;;;2.80;2.55;;;21.10;80.60;;;;;;4933399;29;20549;-59
2022/04/28 11:01:04;;;;;;;3.50;2.67;;;21.50;79.30;;;;;;4877054;29;20228;-58
2022/04/28 11:04:00;;;;;;;2.92;2.60;;;21.70;76.00;;;;;;4876598;29;20783;-58
2022/04/28 11:06:30;;;;;;;2.95;2.65;;;21.70;75.70;;;;;;4877185;29;20192;-58
2022/04/28 11:08:58;;;;;;;2.95;2.55;;;21.80;79.30;;;;;;4876898;29;20568;-60
2022/04/28 11:11:43;;;;;;;3.50;2.60;;;21.80;76.50;;;;;;4877178;29;20211;-57
2022/04/28 11:14:08;;;;;;;3.20;2.60;;;21.90;79.60;;;;;;4876291;29;20227;-59
2022/04/28 11:16:34;;;;;;;2.50;2.30;;;21.60;76.40;;;;;;4919923;29;20581;-57
2022/04/28 11:19:01;;;;;;;2.95;2.65;;;21.60;75.80;;;;;;4933408;29;20206;-58
2022/04/28 11:21:28;;;;;;;2.40;2.20;;;21.40;75.50;;;;;;4933205;29;20186;-58
2022/04/28 11:23:55;;;;;;;3.88;2.53;;;21.30;78.50;;;;;;4932938;29;20232;-56
2022/04/28 11:26:24;;;;;;;3.63;2.90;;;21.20;80.00;;;;;;4933044;29;20184;-58
2022/04/28 11:28:51;;;;;;;2.97;2.70;;;21.30;79.20;;;;;;4933329;29;20182;-58
2022/04/28 11:31:19;;;;;;;2.92;2.45;;;21.10;76.30;;;;;;4932768;29;20210;-58
2022/04/28 11:33:49;;;;;;;2.85;2.63;;;21.00;76.70;;;;;;4932537;29;20301;-59
2022/04/28 11:36:28;;;;;;;3.15;2.85;;;21.10;73.50;;;;;;4960175;28;20178;-58
2022/04/28 11:39:00;;;;;;;5.47;3.50;;;21.10;78.70;;;;;;5012934;28;20239;-58
2022/04/28 11:41:34;;;;;;;3.58;3.28;;;21.20;79.40;;;;;;5012716;28;20263;-58
2022/04/28 11:44:01;;;;;;;4.22;3.15;;;21.40;78.40;;;;;;5012541;28;20192;-59
2022/04/28 11:46:27;;;;;;;3.25;2.60;;;21.40;74.80;;;;;;5012699;28;20176;-57
2022/04/28 11:48:53;;;;;;;2.88;2.58;;;21.50;78.00;;;;;;5012623;28;20665;-58
2022/04/28 11:51:23;;;;;;;2.83;2.53;;;21.50;78.50;;;;;;5012611;28;20190;-58
2022/04/28 11:53:49;;;;;;;3.20;2.53;;;21.40;77.60;;;;;;5011995;28;20259;-57
2022/04/28 11:56:17;;;;;;;4.60;2.40;;;21.30;76.20;;;;;;5012620;28;20277;-57
2022/04/28 11:58:45;;;;;;;2.28;2.05;;;21.40;69.00;;;;;;5012377;28;20187;-57
2022/04/28 12:01:11;;;;;;;2.13;1.98;;;21.40;71.70;;;;;;5012510;28;20554;-58
2022/04/28 12:03:36;;;;;;;3.80;2.38;;;21.50;76.50;;;;;;5011901;28;20200;-56
2022/04/28 12:06:04;;;;;;;3.10;2.28;;;21.40;72.90;;;;;;5012446;28;20581;-61
2022/04/28 12:08:30;;;;;;;2.45;2.00;;;21.20;74.40;;;;;;5012280;28;20180;-56
2022/04/28 12:19:20;;;;;;;3.55;2.33;;;21.80;75.80;;;;;;5011799;28;20584;-59
2022/04/28 12:21:45;;;;;;;2.70;2.50;;;21.80;73.10;;;;;;5011656;28;20165;-58
2022/04/28 12:24:15;;;;;;;3.75;2.20;;;22.00;69.80;;;;;;5011616;28;20210;-53
2022/04/28 12:26:42;;;;;;;3.05;2.50;;;22.30;78.60;;;;;;5011874;28;20546;-58
2022/04/28 12:29:11;;;;;;;1.90;1.77;;;22.40;70.40;;;;;;5012068;28;20169;-58
2022/04/28 12:31:37;;;;;;;2.50;2.30;;;22.70;77.30;;;;;;5012104;28;20169;-59
2022/04/28 12:34:22;;;;;;;2.17;1.90;;;23.20;69.20;;;;;;5011081;28;20711;-58
2022/04/28 12:36:50;;;;;;;2.55;2.20;;;23.70;70.50;;;;;;5010586;28;20168;-57
2022/04/28 12:39:21;;;;;;;2.33;2.13;;;23.90;66.30;;;;;;5011412;28;20634;-59
2022/04/28 12:41:47;;;;;;;2.17;2.00;;;24.30;65.90;;;;;;5011307;28;20173;-58
2022/04/28 12:44:13;;;;;;;2.90;2.60;;;24.60;65.70;;;;;;5011240;28;20192;-58
2022/04/28 12:46:44;;;;;;;2.80;2.60;;;24.80;67.90;;;;;;5011577;28;20177;-58
2022/04/28 12:49:10;;;;;;;2.70;1.80;;;24.80;70.10;;;;;;5011753;28;20539;-54
2022/04/28 12:51:47;;;;;;;1.60;1.50;;;24.40;61.40;;;;;;5011207;28;20657;-57
2022/04/28 12:54:20;;;;;;;2.83;2.08;;;23.60;61.70;;;;;;5010804;28;20211;-58
2022/04/28 12:56:53;;;;;;;3.78;3.38;;;23.00;69.60;;;;;;5011590;28;20173;-57
2022/04/28 12:59:21;;;;;;;4.30;3.90;;;22.40;71.70;;;;;;5009219;28;20188;-59
2022/04/28 13:01:48;;;;;;;3.95;3.50;;;21.60;74.70;;;;;;5011308;28;20165;-58
2022/04/28 13:04:19;;;;;;;3.47;3.17;;;21.10;77.20;;;;;;5010874;28;20231;-60
2022/04/28 13:06:46;;;;;;;3.80;3.38;;;20.50;78.20;;;;;;5011319;28;20706;-58
2022/04/28 13:09:15;;;;;;;4.10;3.70;;;20.00;75.40;;;;;;5010765;28;20216;-58
2022/04/28 13:11:42;;;;;;;4.00;3.30;;;19.50;78.20;;;;;;5007532;28;20176;-56
2022/04/28 13:14:11;;;;;;;3.45;3.15;;;19.50;80.40;;;;;;5009040;28;20769;-55
2022/04/28 13:16:38;;;;;;;6.03;3.53;;;19.70;77.00;;;;;;5009704;28;20693;-58
2022/04/28 13:19:04;;;;;;;5.05;3.60;;;20.10;76.90;;;;;;5009479;28;20220;-58
2022/04/28 13:21:30;;;;;;;3.80;3.40;;;20.70;81.90;;;;;;5009514;28;20180;-58
2022/04/28 13:23:56;;;;;;;3.78;3.10;;;21.30;80.70;;;;;;5010314;28;20636;-59
2022/04/28 13:26:24;;;;;;;5.15;2.80;;;21.30;77.20;;;;;;5015004;28;20180;-54
2022/04/28 13:28:52;;;;;;;3.55;3.20;;;21.30;76.60;;;;;;5014883;28;20181;-57
2022/04/28 13:31:17;;;;;;;5.10;3.00;;;21.10;79.00;;;;;;5012199;28;20709;-60
2022/04/28 13:33:43;;;;;;;4.20;3.10;;;21.00;77.70;;;;;;5013982;28;20294;-60